sensor_id;sensor_type;location;lat;lon;timestamp;P1;durP1;ratioP1;P2;durP2;ratioP2
51296;SDS011;37380;45.186;9.792;2023-12-04T00:02:11;33.60;;;26.40;;
51296;SDS011;37380;45.186;9.792;2023-12-04T00:04:39;41.40;;;26.67;;
51296;SDS011;37380;45.186;9.792;2023-12-04T00:07:07;35.63;;;29.08;;
51296;SDS011;37380;45.186;9.792;2023-12-04T00:09:34;36.00;;;27.35;;
51296;SDS011;37380;45.186;9.792;2023-12-04T00:12:02;45.63;;;31.05;;
51296;SDS011;37380;45.186;9.792;2023-12-04T00:14:29;31.67;;;27.50;;
51296;SDS011;37380;45.186;9.792;2023-12-04T00:16:57;53.42;;;31.90;;
51296;SDS011;37380;45.186;9.792;2023-12-04T00:19:24;32.42;;;28.75;;
51296;SDS011;37380;45.186;9.792;2023-12-04T00:21:53;36.92;;;28.90;;
51296;SDS011;37380;45.186;9.792;2023-12-04T00:24:20;35.25;;;29.08;;
51296;SDS011;37380;45.186;9.792;2023-12-04T00:26:47;37.67;;;29.65;;
51296;SDS011;37380;45.186;9.792;2023-12-04T00:29:15;33.63;;;28.80;;
51296;SDS011;37380;45.186;9.792;2023-12-04T00:31:42;36.15;;;29.48;;
51296;SDS011;37380;45.186;9.792;2023-12-04T00:34:09;34.97;;;29.00;;
51296;SDS011;37380;45.186;9.792;2023-12-04T00:36:39;35.65;;;29.92;;
51296;SDS011;37380;45.186;9.792;2023-12-04T00:39:06;39.35;;;29.77;;
51296;SDS011;37380;45.186;9.792;2023-12-04T00:41:33;33.63;;;28.80;;
51296;SDS011;37380;45.186;9.792;2023-12-04T00:44:03;31.55;;;28.27;;
51296;SDS011;37380;45.186;9.792;2023-12-04T00:46:30;32.05;;;28.60;;
51296;SDS011;37380;45.186;9.792;2023-12-04T00:48:58;32.25;;;27.00;;
51296;SDS011;37380;45.186;9.792;2023-12-04T00:51:25;33.05;;;28.50;;
51296;SDS011;37380;45.186;9.792;2023-12-04T00:53:53;35.67;;;29.85;;
51296;SDS011;37380;45.186;9.792;2023-12-04T00:56:20;35.42;;;28.42;;
51296;SDS011;37380;45.186;9.792;2023-12-04T00:58:48;37.20;;;29.95;;
51296;SDS011;37380;45.186;9.792;2023-12-04T01:01:16;34.00;;;29.70;;
51296;SDS011;37380;45.186;9.792;2023-12-04T01:03:45;41.83;;;33.00;;
51296;SDS011;37380;45.186;9.792;2023-12-04T01:06:25;32.63;;;29.17;;
51296;SDS011;37380;45.186;9.792;2023-12-04T01:08:53;32.20;;;28.35;;
51296;SDS011;37380;45.186;9.792;2023-12-04T01:11:22;32.58;;;29.17;;
51296;SDS011;37380;45.186;9.792;2023-12-04T01:13:49;35.45;;;29.85;;
51296;SDS011;37380;45.186;9.792;2023-12-04T01:16:17;43.92;;;33.05;;
51296;SDS011;37380;45.186;9.792;2023-12-04T01:18:44;44.05;;;30.35;;
51296;SDS011;37380;45.186;9.792;2023-12-04T01:21:12;41.92;;;31.45;;
51296;SDS011;37380;45.186;9.792;2023-12-04T01:23:39;40.17;;;29.88;;
51296;SDS011;37380;45.186;9.792;2023-12-04T01:26:07;35.53;;;30.88;;
51296;SDS011;37380;45.186;9.792;2023-12-04T01:28:34;40.58;;;29.17;;
51296;SDS011;37380;45.186;9.792;2023-12-04T01:31:01;37.97;;;30.15;;
51296;SDS011;37380;45.186;9.792;2023-12-04T01:33:29;36.70;;;28.90;;
51296;SDS011;37380;45.186;9.792;2023-12-04T01:35:57;35.95;;;29.30;;
51296;SDS011;37380;45.186;9.792;2023-12-04T01:38:25;45.08;;;30.60;;
51296;SDS011;37380;45.186;9.792;2023-12-04T01:40:52;40.35;;;27.08;;
51296;SDS011;37380;45.186;9.792;2023-12-04T01:43:19;32.65;;;27.25;;
51296;SDS011;37380;45.186;9.792;2023-12-04T01:45:47;31.42;;;27.05;;
51296;SDS011;37380;45.186;9.792;2023-12-04T01:48:16;34.60;;;28.13;;
51296;SDS011;37380;45.186;9.792;2023-12-04T01:50:44;33.92;;;28.73;;
51296;SDS011;37380;45.186;9.792;2023-12-04T01:53:12;33.58;;;27.77;;
51296;SDS011;37380;45.186;9.792;2023-12-04T01:55:39;32.55;;;27.98;;
51296;SDS011;37380;45.186;9.792;2023-12-04T01:58:09;32.67;;;26.35;;
51296;SDS011;37380;45.186;9.792;2023-12-04T02:00:37;35.83;;;28.67;;
51296;SDS011;37380;45.186;9.792;2023-12-04T02:03:05;32.80;;;28.80;;
51296;SDS011;37380;45.186;9.792;2023-12-04T02:05:35;40.22;;;28.67;;
51296;SDS011;37380;45.186;9.792;2023-12-04T02:08:04;29.75;;;26.70;;
51296;SDS011;37380;45.186;9.792;2023-12-04T02:10:31;37.42;;;27.88;;
51296;SDS011;37380;45.186;9.792;2023-12-04T02:12:58;41.03;;;27.70;;
51296;SDS011;37380;45.186;9.792;2023-12-04T02:15:26;34.55;;;25.50;;
51296;SDS011;37380;45.186;9.792;2023-12-04T02:17:54;37.67;;;26.92;;
51296;SDS011;37380;45.186;9.792;2023-12-04T02:20:30;28.65;;;25.63;;
51296;SDS011;37380;45.186;9.792;2023-12-04T02:23:01;34.63;;;26.98;;
51296;SDS011;37380;45.186;9.792;2023-12-04T02:25:28;31.05;;;26.85;;
51296;SDS011;37380;45.186;9.792;2023-12-04T02:28:06;45.03;;;29.13;;
51296;SDS011;37380;45.186;9.792;2023-12-04T02:30:37;32.00;;;27.67;;
51296;SDS011;37380;45.186;9.792;2023-12-04T02:33:07;33.05;;;28.13;;
51296;SDS011;37380;45.186;9.792;2023-12-04T02:35:38;32.60;;;27.40;;
51296;SDS011;37380;45.186;9.792;2023-12-04T02:38:07;37.97;;;26.88;;
51296;SDS011;37380;45.186;9.792;2023-12-04T02:40:35;30.80;;;25.05;;
51296;SDS011;37380;45.186;9.792;2023-12-04T02:43:03;31.75;;;28.05;;
51296;SDS011;37380;45.186;9.792;2023-12-04T02:45:30;44.88;;;27.50;;
51296;SDS011;37380;45.186;9.792;2023-12-04T02:47:58;33.38;;;26.58;;
51296;SDS011;37380;45.186;9.792;2023-12-04T02:50:26;40.65;;;26.70;;
51296;SDS011;37380;45.186;9.792;2023-12-04T02:52:54;28.77;;;25.65;;
51296;SDS011;37380;45.186;9.792;2023-12-04T02:55:21;28.77;;;25.70;;
51296;SDS011;37380;45.186;9.792;2023-12-04T02:57:49;33.78;;;27.98;;
51296;SDS011;37380;45.186;9.792;2023-12-04T03:00:16;36.75;;;27.75;;
51296;SDS011;37380;45.186;9.792;2023-12-04T03:02:43;46.55;;;25.10;;
51296;SDS011;37380;45.186;9.792;2023-12-04T03:05:10;34.30;;;28.10;;
51296;SDS011;37380;45.186;9.792;2023-12-04T03:07:38;33.20;;;25.48;;
51296;SDS011;37380;45.186;9.792;2023-12-04T03:10:05;28.80;;;25.75;;
51296;SDS011;37380;45.186;9.792;2023-12-04T03:12:33;35.97;;;25.10;;
51296;SDS011;37380;45.186;9.792;2023-12-04T03:15:02;33.45;;;26.45;;
51296;SDS011;37380;45.186;9.792;2023-12-04T03:17:30;34.22;;;25.00;;
51296;SDS011;37380;45.186;9.792;2023-12-04T03:19:58;29.67;;;26.00;;
51296;SDS011;37380;45.186;9.792;2023-12-04T03:22:26;26.30;;;23.58;;
51296;SDS011;37380;45.186;9.792;2023-12-04T03:24:53;30.15;;;24.80;;
51296;SDS011;37380;45.186;9.792;2023-12-04T03:27:20;32.22;;;24.95;;
51296;SDS011;37380;45.186;9.792;2023-12-04T03:29:48;26.45;;;23.65;;
51296;SDS011;37380;45.186;9.792;2023-12-04T03:32:15;25.67;;;22.63;;
51296;SDS011;37380;45.186;9.792;2023-12-04T03:34:42;25.58;;;22.60;;
51296;SDS011;37380;45.186;9.792;2023-12-04T03:37:09;27.30;;;24.25;;
51296;SDS011;37380;45.186;9.792;2023-12-04T03:39:38;28.20;;;24.15;;
51296;SDS011;37380;45.186;9.792;2023-12-04T03:42:06;29.33;;;24.65;;
51296;SDS011;37380;45.186;9.792;2023-12-04T03:44:33;32.63;;;25.05;;
51296;SDS011;37380;45.186;9.792;2023-12-04T03:47:01;31.67;;;27.50;;
51296;SDS011;37380;45.186;9.792;2023-12-04T03:49:29;29.45;;;26.02;;
51296;SDS011;37380;45.186;9.792;2023-12-04T03:51:56;32.78;;;26.33;;
51296;SDS011;37380;45.186;9.792;2023-12-04T03:54:23;29.55;;;24.45;;
51296;SDS011;37380;45.186;9.792;2023-12-04T03:56:50;32.05;;;26.15;;
51296;SDS011;37380;45.186;9.792;2023-12-04T03:59:19;38.85;;;25.70;;
51296;SDS011;37380;45.186;9.792;2023-12-04T04:01:46;28.75;;;25.30;;
51296;SDS011;37380;45.186;9.792;2023-12-04T04:04:14;37.05;;;29.15;;
51296;SDS011;37380;45.186;9.792;2023-12-04T04:06:41;29.10;;;24.60;;
51296;SDS011;37380;45.186;9.792;2023-12-04T04:09:09;33.78;;;26.42;;
51296;SDS011;37380;45.186;9.792;2023-12-04T04:11:36;28.35;;;24.20;;
51296;SDS011;37380;45.186;9.792;2023-12-04T04:14:04;34.35;;;24.90;;
51296;SDS011;37380;45.186;9.792;2023-12-04T04:16:31;26.95;;;23.10;;
51296;SDS011;37380;45.186;9.792;2023-12-04T04:18:58;30.38;;;23.75;;
51296;SDS011;37380;45.186;9.792;2023-12-04T04:21:26;34.78;;;24.98;;
51296;SDS011;37380;45.186;9.792;2023-12-04T04:23:53;30.33;;;24.58;;
51296;SDS011;37380;45.186;9.792;2023-12-04T04:26:21;30.83;;;24.38;;
51296;SDS011;37380;45.186;9.792;2023-12-04T04:28:50;34.95;;;24.50;;
51296;SDS011;37380;45.186;9.792;2023-12-04T04:31:18;30.67;;;24.90;;
51296;SDS011;37380;45.186;9.792;2023-12-04T04:33:45;34.15;;;25.48;;
51296;SDS011;37380;45.186;9.792;2023-12-04T04:36:12;26.88;;;24.20;;
51296;SDS011;37380;45.186;9.792;2023-12-04T04:38:39;27.73;;;23.35;;
51296;SDS011;37380;45.186;9.792;2023-12-04T04:41:07;37.00;;;25.20;;
51296;SDS011;37380;45.186;9.792;2023-12-04T04:43:39;32.00;;;22.83;;
51296;SDS011;37380;45.186;9.792;2023-12-04T04:46:06;29.35;;;26.23;;
51296;SDS011;37380;45.186;9.792;2023-12-04T04:48:34;26.35;;;22.75;;
51296;SDS011;37380;45.186;9.792;2023-12-04T04:51:02;32.75;;;26.08;;
51296;SDS011;37380;45.186;9.792;2023-12-04T04:53:30;28.63;;;24.17;;
51296;SDS011;37380;45.186;9.792;2023-12-04T04:55:58;28.67;;;22.83;;
51296;SDS011;37380;45.186;9.792;2023-12-04T04:58:25;32.00;;;23.88;;
51296;SDS011;37380;45.186;9.792;2023-12-04T05:00:53;30.17;;;26.42;;
51296;SDS011;37380;45.186;9.792;2023-12-04T05:03:20;26.08;;;22.88;;
51296;SDS011;37380;45.186;9.792;2023-12-04T05:05:51;28.45;;;25.42;;
51296;SDS011;37380;45.186;9.792;2023-12-04T05:08:19;32.47;;;26.20;;
51296;SDS011;37380;45.186;9.792;2023-12-04T05:10:47;38.17;;;26.60;;
51296;SDS011;37380;45.186;9.792;2023-12-04T05:13:14;32.47;;;26.48;;
51296;SDS011;37380;45.186;9.792;2023-12-04T05:15:41;31.30;;;23.92;;
51296;SDS011;37380;45.186;9.792;2023-12-04T05:18:08;29.33;;;25.88;;
51296;SDS011;37380;45.186;9.792;2023-12-04T05:20:36;30.85;;;27.52;;
51296;SDS011;37380;45.186;9.792;2023-12-04T05:23:03;31.60;;;27.23;;
51296;SDS011;37380;45.186;9.792;2023-12-04T05:25:30;34.53;;;26.35;;
51296;SDS011;37380;45.186;9.792;2023-12-04T05:28:07;32.17;;;25.83;;
51296;SDS011;37380;45.186;9.792;2023-12-04T05:30:35;32.10;;;27.02;;
51296;SDS011;37380;45.186;9.792;2023-12-04T05:33:03;30.17;;;26.35;;
51296;SDS011;37380;45.186;9.792;2023-12-04T05:35:31;32.45;;;25.73;;
51296;SDS011;37380;45.186;9.792;2023-12-04T05:38:03;32.88;;;26.60;;
51296;SDS011;37380;45.186;9.792;2023-12-04T05:40:30;33.90;;;27.02;;
51296;SDS011;37380;45.186;9.792;2023-12-04T05:42:57;31.48;;;26.17;;
51296;SDS011;37380;45.186;9.792;2023-12-04T05:45:24;31.58;;;28.30;;
51296;SDS011;37380;45.186;9.792;2023-12-04T05:47:52;27.60;;;24.63;;
51296;SDS011;37380;45.186;9.792;2023-12-04T05:50:20;31.02;;;25.92;;
51296;SDS011;37380;45.186;9.792;2023-12-04T05:52:47;27.35;;;24.23;;
51296;SDS011;37380;45.186;9.792;2023-12-04T05:55:14;29.23;;;25.90;;
51296;SDS011;37380;45.186;9.792;2023-12-04T05:57:43;29.17;;;26.08;;
51296;SDS011;37380;45.186;9.792;2023-12-04T06:00:13;34.80;;;25.70;;
51296;SDS011;37380;45.186;9.792;2023-12-04T06:02:41;30.90;;;25.33;;
51296;SDS011;37380;45.186;9.792;2023-12-04T06:05:09;32.33;;;27.02;;
51296;SDS011;37380;45.186;9.792;2023-12-04T06:07:37;32.85;;;26.10;;
51296;SDS011;37380;45.186;9.792;2023-12-04T06:10:04;30.17;;;26.02;;
51296;SDS011;37380;45.186;9.792;2023-12-04T06:12:32;30.55;;;27.17;;
51296;SDS011;37380;45.186;9.792;2023-12-04T06:14:59;31.10;;;25.80;;
51296;SDS011;37380;45.186;9.792;2023-12-04T06:17:27;28.02;;;24.63;;
51296;SDS011;37380;45.186;9.792;2023-12-04T06:19:55;35.45;;;27.25;;
51296;SDS011;37380;45.186;9.792;2023-12-04T06:22:22;32.55;;;26.00;;
51296;SDS011;37380;45.186;9.792;2023-12-04T06:24:49;29.00;;;25.45;;
51296;SDS011;37380;45.186;9.792;2023-12-04T06:27:18;27.67;;;24.65;;
51296;SDS011;37380;45.186;9.792;2023-12-04T06:29:49;30.33;;;24.42;;
51296;SDS011;37380;45.186;9.792;2023-12-04T06:32:19;27.05;;;23.90;;
51296;SDS011;37380;45.186;9.792;2023-12-04T06:34:46;29.02;;;25.83;;
51296;SDS011;37380;45.186;9.792;2023-12-04T06:37:14;30.75;;;23.42;;
51296;SDS011;37380;45.186;9.792;2023-12-04T06:39:42;32.17;;;26.00;;
51296;SDS011;37380;45.186;9.792;2023-12-04T06:42:13;28.83;;;25.60;;
51296;SDS011;37380;45.186;9.792;2023-12-04T06:44:42;33.80;;;25.98;;
51296;SDS011;37380;45.186;9.792;2023-12-04T06:47:10;31.55;;;23.85;;
51296;SDS011;37380;45.186;9.792;2023-12-04T06:49:38;31.08;;;25.08;;
51296;SDS011;37380;45.186;9.792;2023-12-04T06:52:06;32.90;;;25.30;;
51296;SDS011;37380;45.186;9.792;2023-12-04T06:54:33;31.70;;;25.40;;
51296;SDS011;37380;45.186;9.792;2023-12-04T06:57:00;29.98;;;24.98;;
51296;SDS011;37380;45.186;9.792;2023-12-04T06:59:29;27.58;;;24.25;;
51296;SDS011;37380;45.186;9.792;2023-12-04T07:01:57;28.77;;;24.38;;
51296;SDS011;37380;45.186;9.792;2023-12-04T07:04:25;32.35;;;25.60;;
51296;SDS011;37380;45.186;9.792;2023-12-04T07:06:55;27.92;;;24.55;;
51296;SDS011;37380;45.186;9.792;2023-12-04T07:09:28;35.50;;;26.17;;
51296;SDS011;37380;45.186;9.792;2023-12-04T07:11:56;38.17;;;29.20;;
51296;SDS011;37380;45.186;9.792;2023-12-04T07:14:23;42.40;;;29.08;;
51296;SDS011;37380;45.186;9.792;2023-12-04T07:16:50;35.63;;;26.80;;
51296;SDS011;37380;45.186;9.792;2023-12-04T07:19:17;31.92;;;25.73;;
51296;SDS011;37380;45.186;9.792;2023-12-04T07:21:45;34.22;;;26.23;;
51296;SDS011;37380;45.186;9.792;2023-12-04T07:24:12;32.20;;;25.52;;
51296;SDS011;37380;45.186;9.792;2023-12-04T07:26:39;37.78;;;25.63;;
51296;SDS011;37380;45.186;9.792;2023-12-04T07:29:07;39.22;;;26.30;;
51296;SDS011;37380;45.186;9.792;2023-12-04T07:31:34;31.02;;;25.92;;
51296;SDS011;37380;45.186;9.792;2023-12-04T07:34:01;30.20;;;25.88;;
51296;SDS011;37380;45.186;9.792;2023-12-04T07:36:29;31.00;;;26.70;;
51296;SDS011;37380;45.186;9.792;2023-12-04T07:38:56;33.92;;;26.08;;
51296;SDS011;37380;45.186;9.792;2023-12-04T07:41:23;27.98;;;25.05;;
51296;SDS011;37380;45.186;9.792;2023-12-04T07:43:51;33.40;;;28.60;;
51296;SDS011;37380;45.186;9.792;2023-12-04T07:46:18;39.55;;;28.85;;
51296;SDS011;37380;45.186;9.792;2023-12-04T07:48:45;35.90;;;27.65;;
51296;SDS011;37380;45.186;9.792;2023-12-04T07:51:13;33.28;;;26.63;;
51296;SDS011;37380;45.186;9.792;2023-12-04T07:53:40;31.90;;;26.52;;
51296;SDS011;37380;45.186;9.792;2023-12-04T07:56:07;31.27;;;27.23;;
51296;SDS011;37380;45.186;9.792;2023-12-04T07:58:35;30.58;;;27.05;;
51296;SDS011;37380;45.186;9.792;2023-12-04T08:01:02;31.27;;;27.38;;
51296;SDS011;37380;45.186;9.792;2023-12-04T08:03:30;31.88;;;27.85;;
51296;SDS011;37380;45.186;9.792;2023-12-04T08:05:58;44.35;;;26.98;;
51296;SDS011;37380;45.186;9.792;2023-12-04T08:08:25;37.92;;;27.55;;
51296;SDS011;37380;45.186;9.792;2023-12-04T08:10:52;27.35;;;24.35;;
51296;SDS011;37380;45.186;9.792;2023-12-04T08:13:20;29.60;;;25.15;;
51296;SDS011;37380;45.186;9.792;2023-12-04T08:15:47;26.73;;;22.85;;
51296;SDS011;37380;45.186;9.792;2023-12-04T08:18:14;25.38;;;22.52;;
51296;SDS011;37380;45.186;9.792;2023-12-04T08:20:41;27.83;;;23.15;;
51296;SDS011;37380;45.186;9.792;2023-12-04T08:23:09;25.33;;;22.67;;
51296;SDS011;37380;45.186;9.792;2023-12-04T08:25:36;29.92;;;22.92;;
51296;SDS011;37380;45.186;9.792;2023-12-04T08:28:06;33.50;;;23.98;;
51296;SDS011;37380;45.186;9.792;2023-12-04T08:30:34;31.63;;;24.10;;
51296;SDS011;37380;45.186;9.792;2023-12-04T08:33:01;26.25;;;23.38;;
51296;SDS011;37380;45.186;9.792;2023-12-04T08:35:28;28.27;;;22.85;;
51296;SDS011;37380;45.186;9.792;2023-12-04T08:37:56;27.73;;;22.88;;
51296;SDS011;37380;45.186;9.792;2023-12-04T08:40:23;33.63;;;24.27;;
51296;SDS011;37380;45.186;9.792;2023-12-04T08:42:50;31.05;;;23.25;;
51296;SDS011;37380;45.186;9.792;2023-12-04T08:45:18;27.27;;;22.38;;
51296;SDS011;37380;45.186;9.792;2023-12-04T08:47:45;26.42;;;21.52;;
51296;SDS011;37380;45.186;9.792;2023-12-04T08:50:13;22.55;;;20.20;;
51296;SDS011;37380;45.186;9.792;2023-12-04T08:52:40;27.80;;;20.88;;
51296;SDS011;37380;45.186;9.792;2023-12-04T08:55:09;25.52;;;20.58;;
51296;SDS011;37380;45.186;9.792;2023-12-04T08:57:37;21.60;;;19.33;;
51296;SDS011;37380;45.186;9.792;2023-12-04T09:00:04;23.60;;;21.17;;
51296;SDS011;37380;45.186;9.792;2023-12-04T09:02:32;23.95;;;21.42;;
51296;SDS011;37380;45.186;9.792;2023-12-04T09:04:59;24.55;;;21.92;;
51296;SDS011;37380;45.186;9.792;2023-12-04T09:07:27;35.28;;;22.90;;
51296;SDS011;37380;45.186;9.792;2023-12-04T09:10:14;28.92;;;22.90;;
51296;SDS011;37380;45.186;9.792;2023-12-04T09:13:01;26.80;;;23.48;;
51296;SDS011;37380;45.186;9.792;2023-12-04T09:15:28;28.15;;;25.08;;
51296;SDS011;37380;45.186;9.792;2023-12-04T09:17:55;32.15;;;23.55;;
51296;SDS011;37380;45.186;9.792;2023-12-04T09:20:23;24.52;;;22.00;;
51296;SDS011;37380;45.186;9.792;2023-12-04T09:22:50;25.23;;;22.63;;
51296;SDS011;37380;45.186;9.792;2023-12-04T09:25:23;34.17;;;23.50;;
51296;SDS011;37380;45.186;9.792;2023-12-04T09:27:50;28.02;;;21.58;;
51296;SDS011;37380;45.186;9.792;2023-12-04T09:30:17;24.25;;;21.65;;
51296;SDS011;37380;45.186;9.792;2023-12-04T09:32:45;24.88;;;22.23;;
51296;SDS011;37380;45.186;9.792;2023-12-04T09:35:12;32.10;;;28.80;;
51296;SDS011;37380;45.186;9.792;2023-12-04T09:37:39;42.97;;;34.92;;
51296;SDS011;37380;45.186;9.792;2023-12-04T09:40:07;44.08;;;29.98;;
51296;SDS011;37380;45.186;9.792;2023-12-04T09:42:34;30.13;;;25.20;;
51296;SDS011;37380;45.186;9.792;2023-12-04T09:45:02;31.55;;;26.20;;
51296;SDS011;37380;45.186;9.792;2023-12-04T09:47:31;25.30;;;21.98;;
51296;SDS011;37380;45.186;9.792;2023-12-04T09:50:00;26.85;;;20.70;;
51296;SDS011;37380;45.186;9.792;2023-12-04T09:52:27;24.40;;;20.48;;
51296;SDS011;37380;45.186;9.792;2023-12-04T09:54:55;25.00;;;21.17;;
51296;SDS011;37380;45.186;9.792;2023-12-04T09:57:23;22.60;;;19.27;;
51296;SDS011;37380;45.186;9.792;2023-12-04T09:59:51;21.77;;;19.48;;
51296;SDS011;37380;45.186;9.792;2023-12-04T10:02:19;27.35;;;20.70;;
51296;SDS011;37380;45.186;9.792;2023-12-04T10:04:46;22.35;;;20.30;;
51296;SDS011;37380;45.186;9.792;2023-12-04T10:07:14;25.00;;;21.25;;
51296;SDS011;37380;45.186;9.792;2023-12-04T10:09:41;26.77;;;21.42;;
51296;SDS011;37380;45.186;9.792;2023-12-04T10:12:08;32.83;;;20.58;;
51296;SDS011;37380;45.186;9.792;2023-12-04T10:14:36;26.42;;;21.23;;
51296;SDS011;37380;45.186;9.792;2023-12-04T10:17:13;25.10;;;22.15;;
51296;SDS011;37380;45.186;9.792;2023-12-04T10:19:42;26.08;;;23.33;;
51296;SDS011;37380;45.186;9.792;2023-12-04T10:22:10;24.98;;;22.48;;
51296;SDS011;37380;45.186;9.792;2023-12-04T10:24:38;33.28;;;22.80;;
51296;SDS011;37380;45.186;9.792;2023-12-04T10:27:06;27.75;;;22.15;;
51296;SDS011;37380;45.186;9.792;2023-12-04T10:29:44;27.05;;;21.30;;
51296;SDS011;37380;45.186;9.792;2023-12-04T10:32:20;30.67;;;22.30;;
51296;SDS011;37380;45.186;9.792;2023-12-04T10:34:49;29.23;;;22.35;;
51296;SDS011;37380;45.186;9.792;2023-12-04T10:37:17;28.48;;;22.50;;
51296;SDS011;37380;45.186;9.792;2023-12-04T10:39:46;27.95;;;24.75;;
51296;SDS011;37380;45.186;9.792;2023-12-04T10:42:37;31.10;;;24.02;;
51296;SDS011;37380;45.186;9.792;2023-12-04T10:45:03;21.23;;;19.13;;
51296;SDS011;37380;45.186;9.792;2023-12-04T10:47:33;24.77;;;21.17;;
51296;SDS011;37380;45.186;9.792;2023-12-04T10:50:01;26.40;;;22.65;;
51296;SDS011;37380;45.186;9.792;2023-12-04T10:52:30;30.95;;;22.52;;
51296;SDS011;37380;45.186;9.792;2023-12-04T10:54:58;26.90;;;23.23;;
51296;SDS011;37380;45.186;9.792;2023-12-04T10:57:33;34.05;;;21.80;;
51296;SDS011;37380;45.186;9.792;2023-12-04T11:00:05;32.30;;;24.42;;
51296;SDS011;37380;45.186;9.792;2023-12-04T11:02:35;27.42;;;23.60;;
51296;SDS011;37380;45.186;9.792;2023-12-04T11:05:15;32.60;;;28.75;;
51296;SDS011;37380;45.186;9.792;2023-12-04T11:07:50;36.58;;;27.77;;
51296;SDS011;37380;45.186;9.792;2023-12-04T11:10:50;29.33;;;25.58;;
51296;SDS011;37380;45.186;9.792;2023-12-04T11:13:29;30.92;;;25.17;;
51296;SDS011;37380;45.186;9.792;2023-12-04T11:16:02;34.08;;;26.77;;
51296;SDS011;37380;45.186;9.792;2023-12-04T11:18:51;38.58;;;27.15;;
51296;SDS011;37380;45.186;9.792;2023-12-04T11:21:24;35.50;;;25.80;;
51296;SDS011;37380;45.186;9.792;2023-12-04T11:23:52;32.83;;;27.33;;
51296;SDS011;37380;45.186;9.792;2023-12-04T11:26:20;33.47;;;26.02;;
51296;SDS011;37380;45.186;9.792;2023-12-04T11:28:48;37.03;;;23.27;;
51296;SDS011;37380;45.186;9.792;2023-12-04T11:31:16;30.42;;;25.40;;
51296;SDS011;37380;45.186;9.792;2023-12-04T11:33:43;36.67;;;25.65;;
51296;SDS011;37380;45.186;9.792;2023-12-04T11:36:12;36.08;;;27.52;;
51296;SDS011;37380;45.186;9.792;2023-12-04T11:38:44;30.70;;;24.45;;
51296;SDS011;37380;45.186;9.792;2023-12-04T11:41:14;36.25;;;29.30;;
51296;SDS011;37380;45.186;9.792;2023-12-04T11:43:55;38.33;;;26.83;;
51296;SDS011;37380;45.186;9.792;2023-12-04T11:46:24;36.38;;;24.48;;
51296;SDS011;37380;45.186;9.792;2023-12-04T11:48:56;30.13;;;23.83;;
51296;SDS011;37380;45.186;9.792;2023-12-04T11:51:45;30.15;;;25.08;;
51296;SDS011;37380;45.186;9.792;2023-12-04T11:54:14;34.85;;;25.58;;
51296;SDS011;37380;45.186;9.792;2023-12-04T11:59:37;33.13;;;25.75;;
51296;SDS011;37380;45.186;9.792;2023-12-04T12:02:09;26.55;;;21.48;;
51296;SDS011;37380;45.186;9.792;2023-12-04T12:04:37;38.20;;;25.92;;
51296;SDS011;37380;45.186;9.792;2023-12-04T12:07:05;26.65;;;23.23;;
51296;SDS011;37380;45.186;9.792;2023-12-04T12:09:33;34.00;;;26.10;;
51296;SDS011;37380;45.186;9.792;2023-12-04T12:12:01;29.17;;;24.13;;
51296;SDS011;37380;45.186;9.792;2023-12-04T12:14:29;26.13;;;21.42;;
51296;SDS011;37380;45.186;9.792;2023-12-04T12:16:58;34.88;;;22.95;;
51296;SDS011;37380;45.186;9.792;2023-12-04T12:19:27;26.33;;;22.60;;
51296;SDS011;37380;45.186;9.792;2023-12-04T12:21:55;36.70;;;24.00;;
51296;SDS011;37380;45.186;9.792;2023-12-04T12:24:23;28.38;;;22.15;;
51296;SDS011;37380;45.186;9.792;2023-12-04T12:26:53;28.58;;;23.83;;
51296;SDS011;37380;45.186;9.792;2023-12-04T12:29:21;29.88;;;23.83;;
51296;SDS011;37380;45.186;9.792;2023-12-04T12:31:49;30.35;;;23.55;;
51296;SDS011;37380;45.186;9.792;2023-12-04T12:34:17;31.52;;;23.80;;
51296;SDS011;37380;45.186;9.792;2023-12-04T12:36:45;27.45;;;22.35;;
51296;SDS011;37380;45.186;9.792;2023-12-04T12:39:12;26.23;;;22.05;;
51296;SDS011;37380;45.186;9.792;2023-12-04T12:41:51;29.48;;;23.42;;
51296;SDS011;37380;45.186;9.792;2023-12-04T12:44:18;29.80;;;20.63;;
51296;SDS011;37380;45.186;9.792;2023-12-04T12:46:49;31.88;;;20.85;;
51296;SDS011;37380;45.186;9.792;2023-12-04T12:49:18;26.75;;;21.27;;
51296;SDS011;37380;45.186;9.792;2023-12-04T12:52:05;32.03;;;19.67;;
51296;SDS011;37380;45.186;9.792;2023-12-04T12:54:42;35.78;;;21.15;;
51296;SDS011;37380;45.186;9.792;2023-12-04T12:57:11;29.35;;;21.00;;
51296;SDS011;37380;45.186;9.792;2023-12-04T12:59:38;27.23;;;22.52;;
51296;SDS011;37380;45.186;9.792;2023-12-04T13:02:06;27.35;;;22.20;;
51296;SDS011;37380;45.186;9.792;2023-12-04T13:04:38;25.55;;;21.20;;
51296;SDS011;37380;45.186;9.792;2023-12-04T13:07:08;31.08;;;23.50;;
51296;SDS011;37380;45.186;9.792;2023-12-04T13:09:35;29.10;;;22.90;;
51296;SDS011;37380;45.186;9.792;2023-12-04T13:12:03;26.38;;;22.80;;
51296;SDS011;37380;45.186;9.792;2023-12-04T13:14:32;24.38;;;21.75;;
51296;SDS011;37380;45.186;9.792;2023-12-04T13:17:04;34.33;;;22.80;;
51296;SDS011;37380;45.186;9.792;2023-12-04T13:19:31;26.02;;;21.58;;
51296;SDS011;37380;45.186;9.792;2023-12-04T13:22:01;23.83;;;19.45;;
51296;SDS011;37380;45.186;9.792;2023-12-04T13:24:31;23.75;;;20.45;;
51296;SDS011;37380;45.186;9.792;2023-12-04T13:26:58;27.60;;;20.27;;
51296;SDS011;37380;45.186;9.792;2023-12-04T13:29:25;30.08;;;22.55;;
51296;SDS011;37380;45.186;9.792;2023-12-04T13:31:53;28.88;;;22.00;;
51296;SDS011;37380;45.186;9.792;2023-12-04T13:34:20;31.17;;;24.02;;
51296;SDS011;37380;45.186;9.792;2023-12-04T13:36:49;28.30;;;21.98;;
51296;SDS011;37380;45.186;9.792;2023-12-04T13:39:17;23.88;;;21.35;;
51296;SDS011;37380;45.186;9.792;2023-12-04T13:41:49;35.15;;;23.15;;
51296;SDS011;37380;45.186;9.792;2023-12-04T13:44:35;29.20;;;24.50;;
51296;SDS011;37380;45.186;9.792;2023-12-04T13:47:02;25.45;;;22.38;;
51296;SDS011;37380;45.186;9.792;2023-12-04T13:49:30;30.30;;;21.60;;
51296;SDS011;37380;45.186;9.792;2023-12-04T13:51:59;27.02;;;23.77;;
51296;SDS011;37380;45.186;9.792;2023-12-04T13:54:26;26.50;;;23.50;;
51296;SDS011;37380;45.186;9.792;2023-12-04T13:57:10;30.85;;;24.83;;
51296;SDS011;37380;45.186;9.792;2023-12-04T13:59:43;32.93;;;24.80;;
51296;SDS011;37380;45.186;9.792;2023-12-04T14:02:10;33.42;;;25.75;;
51296;SDS011;37380;45.186;9.792;2023-12-04T14:04:39;29.67;;;26.60;;
51296;SDS011;37380;45.186;9.792;2023-12-04T14:07:06;27.88;;;25.00;;
51296;SDS011;37380;45.186;9.792;2023-12-04T14:09:38;37.47;;;26.05;;
51296;SDS011;37380;45.186;9.792;2023-12-04T14:12:07;34.92;;;25.02;;
51296;SDS011;37380;45.186;9.792;2023-12-04T14:14:35;33.13;;;25.48;;
51296;SDS011;37380;45.186;9.792;2023-12-04T14:17:02;31.23;;;24.05;;
51296;SDS011;37380;45.186;9.792;2023-12-04T14:19:31;29.88;;;26.65;;
51296;SDS011;37380;45.186;9.792;2023-12-04T14:21:58;32.67;;;29.15;;
51296;SDS011;37380;45.186;9.792;2023-12-04T14:24:26;36.40;;;31.63;;
51296;SDS011;37380;45.186;9.792;2023-12-04T14:26:53;41.55;;;33.10;;
51296;SDS011;37380;45.186;9.792;2023-12-04T14:29:20;43.47;;;35.42;;
51296;SDS011;37380;45.186;9.792;2023-12-04T14:31:47;34.97;;;30.90;;
51296;SDS011;37380;45.186;9.792;2023-12-04T14:34:14;38.80;;;33.72;;